N6549D KCRE-
Flight info
| Callsign | N6549D |
|---|---|
| Flight time | N/A |
| Altitude | VFR |
| Route | LOCAL AREA |
| Aircraft | CC19/L-DOV/C |
Departure
| Time | 2026-04-13 23:57 |
|---|---|
| Airport | Grand Strand Airport (KCRE) |
Arrival
| Time | N/A |
|---|---|
| Airport | - |
| Time | Latitude | Longitude | Altitude | Speed | Heading |
|---|---|---|---|---|---|
| 2026-04-13 23:51 | 33.80936 | -78.72363 | 35 ft | 0 kts | 42° |
| 2026-04-13 23:52 | 33.80943 | -78.72356 | 35 ft | 4 kts | 46° |
| 2026-04-13 23:52 | 33.80963 | -78.72330 | 35 ft | 4 kts | 45° |
| 2026-04-13 23:52 | 33.81005 | -78.72300 | 35 ft | 10 kts | 36° |
| 2026-04-13 23:53 | 33.81052 | -78.72246 | 35 ft | 9 kts | 45° |
| 2026-04-13 23:53 | 33.81104 | -78.72247 | 35 ft | 10 kts | 320° |
| 2026-04-13 23:53 | 33.81165 | -78.72265 | 34 ft | 9 kts | 42° |
| 2026-04-13 23:53 | 33.81226 | -78.72189 | 34 ft | 16 kts | 46° |
| 2026-04-13 23:54 | 33.81308 | -78.72087 | 34 ft | 18 kts | 45° |
| 2026-04-13 23:54 | 33.81395 | -78.71981 | 34 ft | 16 kts | 44° |
| 2026-04-13 23:54 | 33.81467 | -78.71893 | 34 ft | 13 kts | 45° |
| 2026-04-13 23:54 | 33.81524 | -78.71822 | 34 ft | 11 kts | 47° |
| 2026-04-13 23:55 | 33.81574 | -78.71758 | 34 ft | 12 kts | 45° |
| 2026-04-13 23:55 | 33.81631 | -78.71680 | 33 ft | 11 kts | 51° |
| 2026-04-13 23:55 | 33.81670 | -78.71638 | 33 ft | 2 kts | 20° |
| 2026-04-13 23:55 | 33.81673 | -78.71637 | 33 ft | 0 kts | 15° |
| 2026-04-13 23:56 | 33.81711 | -78.71652 | 33 ft | 12 kts | 317° |
| 2026-04-13 23:56 | 33.81722 | -78.71713 | 32 ft | 5 kts | 229° |
| 2026-04-13 23:56 | 33.81582 | -78.71893 | 48 ft | 57 kts | 220° |
| 2026-04-13 23:56 | 33.81205 | -78.72361 | 55 ft | 95 kts | 226° |
| 2026-04-13 23:57 | 33.80719 | -78.72968 | 145 ft | 95 kts | 222° |
| 2026-04-13 23:57 | 33.80354 | -78.73354 | 726 ft | 70 kts | 192° |
| 2026-04-13 23:57 | 33.79801 | -78.73226 | 808 ft | 87 kts | 169° |
| 2026-04-13 23:57 | 33.79216 | -78.73216 | 854 ft | 84 kts | 200° |
| 2026-04-13 23:58 | 33.78736 | -78.73693 | 730 ft | 93 kts | 224° |
| 2026-04-13 23:58 | 33.78300 | -78.74231 | 696 ft | 86 kts | 217° |
| 2026-04-13 23:58 | 33.77910 | -78.74788 | 724 ft | 92 kts | 228° |
| 2026-04-13 23:58 | 33.77519 | -78.75417 | 726 ft | 92 kts | 229° |
| 2026-04-13 23:59 | 33.77163 | -78.75976 | 723 ft | 78 kts | 226° |
| 2026-04-13 23:59 | 33.76850 | -78.76452 | 732 ft | 72 kts | 227° |
| 2026-04-13 23:59 | 33.76549 | -78.76954 | 741 ft | 76 kts | 227° |
| 2026-04-13 23:59 | 33.76218 | -78.77453 | 719 ft | 76 kts | 221° |
| 2026-04-14 00:00 | 33.75851 | -78.77883 | 719 ft | 71 kts | 222° |
| 2026-04-14 00:00 | 33.75575 | -78.78371 | 651 ft | 68 kts | 232° |
| 2026-04-14 00:00 | 33.75353 | -78.78831 | 624 ft | 63 kts | 233° |
| 2026-04-14 00:00 | 33.75118 | -78.79267 | 620 ft | 60 kts | 232° |
| 2026-04-14 00:01 | 33.74907 | -78.79660 | 614 ft | 55 kts | 229° |
| 2026-04-14 00:01 | 33.74691 | -78.80031 | 634 ft | 53 kts | 224° |
| 2026-04-14 00:01 | 33.74468 | -78.80402 | 660 ft | 56 kts | 231° |
| 2026-04-14 00:01 | 33.74216 | -78.80797 | 626 ft | 61 kts | 227° |
| 2026-04-14 00:02 | 33.73947 | -78.81180 | 648 ft | 58 kts | 225° |
| 2026-04-14 00:02 | 33.73684 | -78.81537 | 654 ft | 58 kts | 227° |
| 2026-04-14 00:02 | 33.73430 | -78.81893 | 663 ft | 54 kts | 224° |
| 2026-04-14 00:02 | 33.73178 | -78.82231 | 680 ft | 54 kts | 222° |
| 2026-04-14 00:03 | 33.72925 | -78.82572 | 673 ft | 58 kts | 225° |
| 2026-04-14 00:03 | 33.72665 | -78.82954 | 640 ft | 59 kts | 225° |
| 2026-04-14 00:03 | 33.72407 | -78.83310 | 626 ft | 55 kts | 221° |
| 2026-04-14 00:03 | 33.72143 | -78.83634 | 644 ft | 55 kts | 219° |
| 2026-04-14 00:04 | 33.71872 | -78.83942 | 681 ft | 53 kts | 221° |
| 2026-04-14 00:04 | 33.71618 | -78.84265 | 696 ft | 54 kts | 221° |
| 2026-04-14 00:04 | 33.71352 | -78.84588 | 710 ft | 54 kts | 220° |
| 2026-04-14 00:04 | 33.71104 | -78.84929 | 713 ft | 55 kts | 219° |
| 2026-04-14 00:05 | 33.70839 | -78.85256 | 686 ft | 54 kts | 220° |
| 2026-04-14 00:05 | 33.70575 | -78.85568 | 674 ft | 51 kts | 219° |
| 2026-04-14 00:05 | 33.70347 | -78.85886 | 663 ft | 52 kts | 221° |
| 2026-04-14 00:05 | 33.70103 | -78.86211 | 635 ft | 51 kts | 213° |
| 2026-04-14 00:06 | 33.69852 | -78.86493 | 628 ft | 48 kts | 215° |
| 2026-04-14 00:06 | 33.69577 | -78.86743 | 614 ft | 51 kts | 218° |
| 2026-04-14 00:06 | 33.69305 | -78.86994 | 623 ft | 48 kts | 215° |
| 2026-04-14 00:06 | 33.69048 | -78.87267 | 574 ft | 52 kts | 218° |
| 2026-04-14 00:07 | 33.68795 | -78.87621 | 529 ft | 58 kts | 221° |
| 2026-04-14 00:07 | 33.68518 | -78.87958 | 505 ft | 55 kts | 220° |
| 2026-04-14 00:07 | 33.68220 | -78.88361 | 637 ft | 78 kts | 222° |
| 2026-04-14 00:07 | 33.67760 | -78.88346 | 742 ft | 101 kts | 109° |
| 2026-04-14 00:08 | 33.68271 | -78.87785 | 601 ft | 120 kts | 6° |
| 2026-04-14 00:08 | 33.68769 | -78.87117 | 712 ft | 114 kts | 65° |
| 2026-04-14 00:08 | 33.69481 | -78.86655 | 648 ft | 104 kts | 66° |
| 2026-04-14 00:08 | 33.69978 | -78.86129 | 598 ft | 104 kts | 48° |
| 2026-04-14 00:09 | 33.70492 | -78.85624 | 619 ft | 119 kts | 25° |
| 2026-04-14 00:09 | 33.71145 | -78.84928 | 597 ft | 124 kts | 62° |
| 2026-04-14 00:09 | 33.71707 | -78.84204 | 641 ft | 115 kts | 69° |
| 2026-04-14 00:09 | 33.72254 | -78.83504 | 657 ft | 117 kts | 47° |
| 2026-04-14 00:10 | 33.72831 | -78.82792 | 663 ft | 121 kts | 50° |
| 2026-04-14 00:10 | 33.73365 | -78.82047 | 709 ft | 113 kts | 54° |
| 2026-04-14 00:10 | 33.73832 | -78.81339 | 672 ft | 110 kts | 55° |
| 2026-04-14 00:10 | 33.74253 | -78.80748 | 902 ft | 116 kts | 50° |
| 2026-04-14 00:11 | 33.74863 | -78.79958 | 565 ft | 131 kts | 51° |
| 2026-04-14 00:11 | 33.75397 | -78.79080 | 628 ft | 124 kts | 64° |
| 2026-04-14 00:11 | 33.75937 | -78.78339 | 658 ft | 115 kts | 62° |
| 2026-04-14 00:11 | 33.76391 | -78.77604 | 795 ft | 112 kts | 58° |
| 2026-04-14 00:12 | 33.76822 | -78.76874 | 782 ft | 101 kts | 60° |
| 2026-04-14 00:12 | 33.77214 | -78.76192 | 781 ft | 97 kts | 60° |
| 2026-04-14 00:12 | 33.77616 | -78.75527 | 820 ft | 101 kts | 55° |
| 2026-04-14 00:12 | 33.78099 | -78.74841 | 975 ft | 113 kts | 51° |
| 2026-04-14 00:13 | 33.78600 | -78.74136 | 1140 ft | 109 kts | 55° |
| 2026-04-14 00:13 | 33.78922 | -78.73667 | 1203 ft | 108 kts | 57° |
| 2026-04-14 00:13 | 33.79403 | -78.72962 | 1222 ft | 111 kts | 55° |
| 2026-04-14 00:13 | 33.79908 | -78.72236 | 1193 ft | 114 kts | 54° |
| 2026-04-14 00:14 | 33.80404 | -78.71500 | 1187 ft | 113 kts | 53° |
| 2026-04-14 00:14 | 33.80916 | -78.70793 | 1187 ft | 112 kts | 54° |
| 2026-04-14 00:14 | 33.81398 | -78.70086 | 1129 ft | 100 kts | 77° |
| 2026-04-14 00:14 | 33.81896 | -78.69560 | 958 ft | 98 kts | 30° |
| 2026-04-14 00:15 | 33.82512 | -78.69727 | 525 ft | 90 kts | 287° |
| 2026-04-14 00:15 | 33.82615 | -78.70345 | 360 ft | 68 kts | 257° |
| 2026-04-14 00:15 | 33.82409 | -78.70831 | 293 ft | 66 kts | 229° |
| 2026-04-14 00:15 | 33.82108 | -78.71235 | 190 ft | 59 kts | 224° |
| 2026-04-14 00:16 | 33.81817 | -78.71601 | 70 ft | 60 kts | 226° |
| 2026-04-14 00:16 | 33.81561 | -78.71916 | 35 ft | 40 kts | 220° |
| 2026-04-14 00:16 | 33.81413 | -78.72093 | 34 ft | 22 kts | 230° |
| 2026-04-14 00:16 | 33.81320 | -78.72217 | 34 ft | 22 kts | 225° |
| 2026-04-14 00:17 | 33.81235 | -78.72303 | 33 ft | 10 kts | 177° |
| 2026-04-14 00:17 | 33.81184 | -78.72274 | 34 ft | 8 kts | 173° |
| 2026-04-14 00:17 | 33.81114 | -78.72255 | 35 ft | 12 kts | 146° |
| 2026-04-14 00:17 | 33.81023 | -78.72254 | 35 ft | 1 kts | 220° |